createdAt,value
2017-05-22T00:00:56.729Z,8.11
2017-05-22T00:01:56.738Z,8.11
2017-05-22T00:02:56.759Z,8.09
2017-05-22T00:03:56.722Z,8.09
2017-05-22T00:04:56.761Z,8.06
2017-05-22T00:05:56.737Z,8.06
2017-05-22T00:06:56.734Z,8.05
2017-05-22T00:07:56.737Z,8.02
2017-05-22T00:08:56.747Z,7.99
2017-05-22T00:09:56.727Z,7.95
2017-05-22T00:10:56.743Z,7.92
2017-05-22T00:11:56.739Z,7.89
2017-05-22T00:12:56.757Z,7.86
2017-05-22T00:13:56.713Z,7.92
2017-05-22T00:14:56.746Z,7.98
2017-05-22T00:15:56.736Z,7.99
2017-05-22T00:16:56.748Z,7.95
2017-05-22T00:17:56.749Z,7.92
2017-05-22T00:18:56.791Z,7.87
2017-05-22T00:19:56.714Z,7.87
2017-05-22T00:20:56.793Z,7.89
2017-05-22T00:21:56.738Z,7.89
2017-05-22T00:22:56.738Z,7.86
2017-05-22T00:23:56.755Z,7.86
2017-05-22T00:24:56.739Z,7.86
2017-05-22T00:25:56.750Z,7.82
2017-05-22T00:26:56.744Z,7.81
2017-05-22T00:27:56.739Z,7.81
2017-05-22T00:28:56.754Z,7.78
2017-05-22T00:29:56.743Z,7.78
2017-05-22T00:30:56.751Z,7.76
2017-05-22T00:31:56.744Z,7.75
2017-05-22T00:32:56.750Z,7.74
2017-05-22T00:33:56.778Z,7.71
2017-05-22T00:34:56.728Z,7.70
2017-05-22T00:35:56.760Z,7.68
2017-05-22T00:36:56.753Z,7.68
2017-05-22T00:37:56.747Z,7.65
2017-05-22T00:38:56.748Z,7.58
2017-05-22T00:39:56.756Z,7.58
2017-05-22T00:40:56.751Z,7.55
2017-05-22T00:41:56.796Z,7.58
2017-05-22T00:42:56.751Z,7.56
2017-05-22T00:43:56.779Z,7.55
2017-05-22T00:44:56.761Z,7.55
2017-05-22T00:45:56.762Z,7.53
2017-05-22T00:46:56.742Z,7.55
2017-05-22T00:47:56.763Z,7.55
2017-05-22T00:48:56.754Z,7.53
2017-05-22T00:49:56.768Z,7.51
2017-05-22T00:50:56.801Z,7.46
2017-05-22T00:51:56.758Z,7.45
2017-05-22T00:52:56.755Z,7.44
2017-05-22T00:53:56.755Z,7.41
2017-05-22T00:54:56.752Z,7.41
2017-05-22T00:55:56.759Z,7.41
2017-05-22T00:56:56.757Z,7.42
2017-05-22T00:57:56.756Z,7.42
2017-05-22T00:58:56.770Z,7.44
2017-05-22T00:59:56.760Z,7.44
2017-05-22T01:00:56.762Z,7.42
2017-05-22T01:01:56.791Z,7.42
2017-05-22T01:02:56.770Z,7.40
2017-05-22T01:03:56.767Z,7.38
2017-05-22T01:04:56.775Z,7.37
2017-05-22T01:05:56.809Z,7.38
2017-05-22T01:06:56.759Z,7.38
2017-05-22T01:07:56.811Z,7.40
2017-05-22T01:08:56.773Z,7.40
2017-05-22T01:09:56.757Z,7.38
2017-05-22T01:10:56.763Z,7.37
2017-05-22T01:11:56.758Z,7.35
2017-05-22T01:12:56.756Z,7.34
2017-05-22T01:13:56.772Z,7.31
2017-05-22T01:14:56.774Z,7.30
2017-05-22T01:15:56.767Z,7.27
2017-05-22T01:16:56.778Z,7.29
2017-05-22T01:17:56.776Z,7.24
2017-05-22T01:18:56.770Z,7.23
2017-05-22T01:19:56.744Z,7.20
2017-05-22T01:20:56.745Z,7.18
2017-05-22T01:21:56.762Z,7.20
2017-05-22T01:22:56.771Z,7.29
2017-05-22T01:23:56.769Z,7.35
2017-05-22T01:24:56.783Z,7.37
2017-05-22T01:25:56.746Z,7.34
2017-05-22T01:26:56.764Z,7.31
2017-05-22T01:27:56.749Z,7.27
2017-05-22T01:28:56.774Z,7.33
2017-05-22T01:29:56.753Z,7.31
2017-05-22T01:30:56.782Z,7.33
2017-05-22T01:31:56.787Z,7.26
2017-05-22T01:32:56.770Z,7.24
2017-05-22T01:33:56.783Z,7.22
2017-05-22T01:34:56.786Z,7.26
2017-05-22T01:35:56.754Z,7.30
2017-05-22T01:36:56.777Z,7.31
2017-05-22T01:37:56.776Z,7.30
2017-05-22T01:38:56.826Z,7.27
2017-05-22T01:39:56.758Z,7.22
2017-05-22T01:40:56.780Z,7.22
2017-05-22T01:41:56.778Z,7.15
2017-05-22T01:42:56.758Z,7.09
2017-05-22T01:43:56.757Z,7.05
2017-05-22T01:44:56.828Z,7.00
2017-05-22T01:45:56.790Z,6.98
2017-05-22T01:46:56.793Z,6.94
2017-05-22T01:47:56.796Z,6.94
2017-05-22T01:48:56.788Z,6.95
2017-05-22T01:49:56.758Z,6.95
2017-05-22T01:50:56.799Z,6.97
2017-05-22T01:51:56.798Z,6.94
2017-05-22T01:52:56.818Z,6.91
2017-05-22T01:53:56.799Z,6.89
2017-05-22T01:54:56.785Z,6.84
2017-05-22T01:55:56.783Z,6.82
2017-05-22T01:56:56.789Z,6.82
2017-05-22T01:57:56.786Z,6.81
2017-05-22T01:58:56.788Z,6.81
2017-05-22T01:59:56.801Z,6.81
2017-05-22T02:00:56.767Z,6.84
2017-05-22T02:01:56.831Z,6.84
2017-05-22T02:02:56.800Z,6.86
2017-05-22T02:03:56.824Z,6.87
2017-05-22T02:04:56.806Z,6.87
2017-05-22T02:05:56.871Z,6.82
2017-05-22T02:06:56.802Z,6.79
2017-05-22T02:07:56.801Z,6.75
2017-05-22T02:08:56.802Z,6.71
2017-05-22T02:09:56.801Z,6.70
2017-05-22T02:10:56.794Z,6.68
2017-05-22T02:11:56.797Z,6.70
2017-05-22T02:12:56.801Z,6.71
2017-05-22T02:13:56.804Z,6.71
2017-05-22T02:14:56.789Z,6.70
2017-05-22T02:15:56.796Z,6.68
2017-05-22T02:16:56.798Z,6.64
2017-05-22T02:17:56.801Z,6.64
2017-05-22T02:18:56.801Z,6.68
2017-05-22T02:19:56.915Z,6.71
2017-05-22T02:20:56.834Z,6.70
2017-05-22T02:21:56.815Z,6.70
2017-05-22T02:22:56.811Z,6.67
2017-05-22T02:23:56.780Z,6.63
2017-05-22T02:24:56.813Z,6.63
2017-05-22T02:25:56.782Z,6.59
2017-05-22T02:26:56.838Z,6.57
2017-05-22T02:27:56.817Z,6.55
2017-05-22T02:28:56.782Z,6.52
2017-05-22T02:29:56.815Z,6.51
2017-05-22T02:30:56.812Z,6.48
2017-05-22T02:31:56.813Z,6.49
2017-05-22T02:32:56.800Z,6.49
2017-05-22T02:33:56.811Z,6.51
2017-05-22T02:34:56.816Z,6.52
2017-05-22T02:35:56.784Z,6.55
2017-05-22T02:36:56.787Z,6.51
2017-05-22T02:37:56.809Z,6.52
2017-05-22T02:38:56.819Z,6.56
2017-05-22T02:39:56.822Z,6.51
2017-05-22T02:40:56.843Z,6.45
2017-05-22T02:41:56.812Z,6.41
2017-05-22T02:42:56.813Z,6.41
2017-05-22T02:43:56.813Z,6.38
2017-05-22T02:44:56.826Z,6.38
2017-05-22T02:45:56.809Z,6.38
2017-05-22T02:46:56.829Z,6.37
2017-05-22T02:47:56.814Z,6.37
2017-05-22T02:48:56.816Z,6.38
2017-05-22T02:49:56.823Z,6.37
2017-05-22T02:50:56.808Z,6.37
2017-05-22T02:51:56.818Z,6.36
2017-05-22T02:52:56.817Z,6.37
2017-05-22T02:53:56.848Z,6.37
2017-05-22T02:54:56.818Z,6.37
2017-05-22T02:55:56.849Z,6.34
2017-05-22T02:56:56.829Z,6.36
2017-05-22T02:57:56.822Z,6.33
2017-05-22T02:58:56.822Z,6.31
2017-05-22T02:59:56.830Z,6.31
2017-05-22T03:00:56.870Z,6.31
2017-05-22T03:01:56.833Z,6.34
2017-05-22T03:02:56.835Z,6.36
2017-05-22T03:03:56.833Z,6.37
2017-05-22T03:04:56.834Z,6.37
2017-05-22T03:05:56.824Z,6.37
2017-05-22T03:06:56.833Z,6.36
2017-05-22T03:07:56.798Z,6.31
2017-05-22T03:08:56.822Z,6.30
2017-05-22T03:09:56.800Z,6.31
2017-05-22T03:10:56.896Z,6.33
2017-05-22T03:11:56.826Z,6.36
2017-05-22T03:12:56.819Z,6.33
2017-05-22T03:13:56.832Z,6.33
2017-05-22T03:14:56.804Z,6.34
2017-05-22T03:15:56.828Z,6.33
2017-05-22T03:16:56.843Z,6.33
2017-05-22T03:17:56.825Z,6.33
2017-05-22T03:18:56.831Z,6.30
2017-05-22T03:19:56.843Z,6.29
2017-05-22T03:20:56.878Z,6.29
2017-05-22T03:21:56.843Z,6.27
2017-05-22T03:22:56.810Z,6.25
2017-05-22T03:23:56.842Z,6.23
2017-05-22T03:24:56.862Z,6.22
2017-05-22T03:25:56.842Z,6.23
2017-05-22T03:26:56.843Z,6.25
2017-05-22T03:27:56.842Z,6.22
2017-05-22T03:28:56.832Z,6.22
2017-05-22T03:29:56.847Z,6.22
2017-05-22T03:30:56.809Z,6.18
2017-05-22T03:31:56.843Z,6.14
2017-05-22T03:32:56.865Z,6.11
2017-05-22T03:33:56.808Z,6.09
2017-05-22T03:34:56.844Z,6.06
2017-05-22T03:35:56.874Z,6.09
2017-05-22T03:36:56.845Z,6.09
2017-05-22T03:37:56.827Z,6.09
2017-05-22T03:38:56.844Z,6.09
2017-05-22T03:39:56.813Z,6.12
2017-05-22T03:40:56.833Z,6.11
2017-05-22T03:41:56.806Z,6.12
2017-05-22T03:42:56.850Z,6.11
2017-05-22T03:43:56.849Z,6.11
2017-05-22T03:44:56.854Z,6.09
2017-05-22T03:45:56.871Z,6.12
2017-05-22T03:46:56.846Z,6.11
2017-05-22T03:47:56.852Z,6.11
2017-05-22T03:48:56.855Z,6.09
2017-05-22T03:49:56.860Z,6.11
2017-05-22T03:50:56.862Z,6.11
2017-05-22T03:51:56.879Z,6.11
2017-05-22T03:52:56.855Z,6.12
2017-05-22T03:53:56.912Z,6.12
2017-05-22T03:54:56.875Z,6.14
2017-05-22T03:55:56.842Z,6.19
2017-05-22T03:56:56.857Z,6.25
2017-05-22T03:57:56.860Z,6.29
2017-05-22T03:58:56.851Z,6.31
2017-05-22T03:59:56.858Z,6.34
2017-05-22T04:00:56.841Z,6.36
2017-05-22T04:01:56.857Z,6.38
2017-05-22T04:02:56.842Z,6.40
2017-05-22T04:03:56.866Z,6.43
2017-05-22T04:04:56.822Z,6.43
2017-05-22T04:05:56.885Z,6.43
2017-05-22T04:06:56.972Z,6.43
2017-05-22T04:07:56.866Z,6.44
2017-05-22T04:08:56.880Z,6.44
2017-05-22T04:09:56.854Z,6.45
2017-05-22T04:10:56.863Z,6.48
2017-05-22T04:11:56.830Z,6.51
2017-05-22T04:12:56.826Z,6.52
2017-05-22T04:13:56.860Z,6.55
2017-05-22T04:14:56.890Z,6.55
2017-05-22T04:15:56.867Z,6.57
2017-05-22T04:16:56.872Z,6.59
2017-05-22T04:17:56.889Z,6.59
2017-05-22T04:18:56.888Z,6.59
2017-05-22T04:19:56.921Z,6.59
2017-05-22T04:20:56.888Z,6.63
2017-05-22T04:21:56.870Z,6.64
2017-05-22T04:22:56.871Z,6.63
2017-05-22T04:23:56.831Z,6.66
2017-05-22T04:24:56.828Z,6.70
2017-05-22T04:25:56.893Z,6.74
2017-05-22T04:26:56.979Z,6.79
2017-05-22T04:27:56.892Z,6.86
2017-05-22T04:28:56.879Z,6.82
2017-05-22T04:29:56.878Z,6.87
2017-05-22T04:30:56.875Z,6.93
2017-05-22T04:31:56.875Z,6.93
2017-05-22T04:32:56.868Z,6.95
2017-05-22T04:33:56.918Z,6.94
2017-05-22T04:34:56.859Z,6.94
2017-05-22T04:35:56.876Z,6.97
2017-05-22T04:36:56.899Z,6.98
2017-05-22T04:37:56.838Z,6.98
2017-05-22T04:38:56.871Z,7.02
2017-05-22T04:39:56.903Z,7.09
2017-05-22T04:40:56.889Z,7.09
2017-05-22T04:41:56.881Z,7.12
2017-05-22T04:42:56.880Z,7.15
2017-05-22T04:43:56.882Z,7.19
2017-05-22T04:44:56.867Z,7.23
2017-05-22T04:45:56.882Z,7.27
2017-05-22T04:46:56.876Z,7.29
2017-05-22T04:47:56.864Z,7.31
2017-05-22T04:48:56.885Z,7.33
2017-05-22T04:49:56.864Z,7.38
2017-05-22T04:50:56.888Z,7.42
2017-05-22T04:51:56.887Z,7.44
2017-05-22T04:52:56.888Z,7.51
2017-05-22T04:53:56.909Z,7.53
2017-05-22T04:54:56.905Z,7.58
2017-05-22T04:55:56.906Z,7.64
2017-05-22T04:56:56.889Z,7.71
2017-05-22T04:57:56.864Z,7.76
2017-05-22T04:58:56.848Z,7.81
2017-05-22T04:59:56.868Z,7.89
2017-05-22T05:00:56.909Z,7.92
2017-05-22T05:01:56.881Z,8.01
2017-05-22T05:02:56.890Z,8.05
2017-05-22T05:03:56.891Z,8.15
2017-05-22T05:04:56.886Z,8.20
2017-05-22T05:05:56.893Z,8.26
2017-05-22T05:06:56.889Z,8.30
2017-05-22T05:07:56.894Z,8.35
2017-05-22T05:08:56.891Z,8.43
2017-05-22T05:09:56.888Z,8.47
2017-05-22T05:10:56.873Z,8.51
2017-05-22T05:11:56.889Z,8.57
2017-05-22T05:12:56.877Z,8.65
2017-05-22T05:13:56.888Z,8.72
2017-05-22T05:14:56.896Z,8.76
2017-05-22T05:15:56.898Z,8.80
2017-05-22T05:16:56.891Z,8.85
2017-05-22T05:17:56.901Z,8.87
2017-05-22T05:18:56.900Z,8.93
2017-05-22T05:19:56.860Z,8.94
2017-05-22T05:20:56.862Z,8.97
2017-05-22T05:21:57.004Z,9.02
2017-05-22T05:22:56.902Z,9.07
2017-05-22T05:23:56.899Z,9.12
2017-05-22T05:24:56.897Z,9.19
2017-05-22T05:25:56.994Z,9.22
2017-05-22T05:26:56.900Z,9.27
2017-05-22T05:27:56.908Z,9.28
2017-05-22T05:28:56.898Z,9.32
2017-05-22T05:29:56.869Z,9.39
2017-05-22T05:30:56.869Z,9.42
2017-05-22T05:31:56.911Z,9.47
2017-05-22T05:32:56.928Z,9.51
2017-05-22T05:33:56.907Z,9.57
2017-05-22T05:34:56.900Z,9.57
2017-05-22T05:35:56.906Z,9.58
2017-05-22T05:36:56.900Z,9.62
2017-05-22T05:37:56.873Z,9.69
2017-05-22T05:38:56.913Z,9.72
2017-05-22T05:39:56.889Z,9.78
2017-05-22T05:40:56.879Z,9.86
2017-05-22T05:41:56.876Z,9.90
2017-05-22T05:42:56.906Z,10.01
2017-05-22T05:43:56.919Z,10.13
2017-05-22T05:44:56.875Z,10.28
2017-05-22T05:45:56.918Z,10.47
2017-05-22T05:46:56.913Z,10.68
2017-05-22T05:47:56.891Z,10.91
2017-05-22T05:48:56.896Z,11.14
2017-05-22T05:49:56.936Z,11.33
2017-05-22T05:50:56.956Z,11.40
2017-05-22T05:51:56.918Z,11.51
2017-05-22T05:52:56.914Z,11.69
2017-05-22T05:53:56.898Z,11.82
2017-05-22T05:54:56.919Z,11.95
2017-05-22T05:55:56.924Z,12.02
2017-05-22T05:56:56.881Z,12.25
2017-05-22T05:57:56.922Z,12.48
2017-05-22T05:58:56.923Z,12.68
2017-05-22T05:59:56.915Z,12.94
2017-05-22T06:00:56.920Z,13.12
2017-05-22T06:01:56.886Z,13.28
2017-05-22T06:02:56.927Z,13.42
2017-05-22T06:03:56.924Z,13.56
2017-05-22T06:04:56.949Z,13.59
2017-05-22T06:05:56.923Z,13.62
2017-05-22T06:06:56.916Z,13.77
2017-05-22T06:07:56.927Z,13.86
2017-05-22T06:08:56.925Z,14.03
2017-05-22T06:09:56.931Z,14.17
2017-05-22T06:10:56.932Z,14.22
2017-05-22T06:11:56.928Z,14.22
2017-05-22T06:12:56.927Z,14.31
2017-05-22T06:13:56.922Z,14.07
2017-05-22T06:14:56.930Z,13.88
2017-05-22T06:15:56.994Z,13.66
2017-05-22T06:16:56.958Z,13.81
2017-05-22T06:17:56.930Z,14.02
2017-05-22T06:18:56.932Z,14.04
2017-05-22T06:19:56.924Z,14.03
2017-05-22T06:20:56.930Z,14.04
2017-05-22T06:21:56.949Z,14.02
2017-05-22T06:22:56.914Z,14.15
2017-05-22T06:23:56.933Z,14.42
2017-05-22T06:24:56.934Z,14.54
2017-05-22T06:25:56.938Z,14.71
2017-05-22T06:26:56.928Z,14.86
2017-05-22T06:27:56.937Z,15.04
2017-05-22T06:28:56.898Z,15.00
2017-05-22T06:29:56.930Z,15.14
2017-05-22T06:30:56.936Z,15.31
2017-05-22T06:31:56.916Z,15.47
2017-05-22T06:32:56.918Z,15.59
2017-05-22T06:33:56.939Z,15.50
2017-05-22T06:34:56.933Z,15.65
2017-05-22T06:35:56.918Z,15.73
2017-05-22T06:36:56.961Z,15.73
2017-05-22T06:37:56.939Z,15.65
2017-05-22T06:38:57.047Z,15.55
2017-05-22T06:39:56.959Z,15.76
2017-05-22T06:40:56.941Z,15.91
2017-05-22T06:41:56.933Z,16.14
2017-05-22T06:42:56.943Z,16.31
2017-05-22T06:43:56.944Z,16.43
2017-05-22T06:44:56.933Z,16.39
2017-05-22T06:45:56.924Z,16.35
2017-05-22T06:46:56.968Z,16.25
2017-05-22T06:47:56.944Z,16.33
2017-05-22T06:48:56.950Z,16.27
2017-05-22T06:49:56.949Z,16.35
2017-05-22T06:50:57.051Z,16.54
2017-05-22T06:51:56.904Z,16.54
2017-05-22T06:52:56.944Z,16.39
2017-05-22T06:53:56.947Z,16.62
2017-05-22T06:54:56.955Z,16.70
2017-05-22T06:55:56.945Z,16.88
2017-05-22T06:56:56.943Z,16.77
2017-05-22T06:57:56.955Z,16.99
2017-05-22T06:58:56.962Z,17.05
2017-05-22T06:59:56.953Z,17.20
2017-05-22T07:00:56.973Z,17.09
2017-05-22T07:01:56.971Z,16.91
2017-05-22T07:02:56.956Z,16.97
2017-05-22T07:03:56.959Z,17.09
2017-05-22T07:04:56.943Z,17.20
2017-05-22T07:05:56.946Z,17.33
2017-05-22T07:06:56.953Z,17.57
2017-05-22T07:07:56.947Z,17.47
2017-05-22T07:08:56.957Z,17.50
2017-05-22T07:09:56.946Z,17.64
2017-05-22T07:10:56.958Z,17.75
2017-05-22T07:11:56.933Z,17.75
2017-05-22T07:12:56.951Z,17.87
2017-05-22T07:13:56.951Z,17.96
2017-05-22T07:14:56.957Z,18.05
2017-05-22T07:15:57.065Z,18.00
2017-05-22T07:16:56.953Z,17.95
2017-05-22T07:17:56.979Z,18.06
2017-05-22T07:18:56.960Z,18.28
2017-05-22T07:19:56.963Z,18.35
2017-05-22T07:20:56.985Z,18.41
2017-05-22T07:21:56.965Z,18.69
2017-05-22T07:22:56.940Z,18.86
2017-05-22T07:23:56.958Z,18.81
2017-05-22T07:24:56.957Z,18.83
2017-05-22T07:25:56.925Z,18.97
2017-05-22T07:26:56.972Z,19.13
2017-05-22T07:27:56.967Z,19.43
2017-05-22T07:28:56.964Z,19.43
2017-05-22T07:29:56.968Z,19.46
2017-05-22T07:30:56.957Z,19.47
2017-05-22T07:31:56.932Z,19.62
2017-05-22T07:32:56.949Z,19.80
2017-05-22T07:33:56.971Z,19.95
2017-05-22T07:34:56.938Z,19.94
2017-05-22T07:35:56.932Z,19.96
2017-05-22T07:36:58.009Z,20.06
2017-05-22T07:37:56.994Z,19.98
2017-05-22T07:38:56.974Z,19.98
2017-05-22T07:39:56.963Z,20.03
2017-05-22T07:40:57.027Z,19.98
2017-05-22T07:41:56.963Z,20.02
2017-05-22T07:42:56.968Z,20.12
2017-05-22T07:43:56.949Z,20.01
2017-05-22T07:44:56.972Z,19.84
2017-05-22T07:45:56.992Z,19.98
2017-05-22T07:46:56.997Z,20.10
2017-05-22T07:47:56.969Z,20.17
2017-05-22T07:48:56.977Z,20.28
2017-05-22T07:49:56.969Z,20.24
2017-05-22T07:50:56.971Z,20.24
2017-05-22T07:51:56.992Z,20.17
2017-05-22T07:52:56.980Z,20.14
2017-05-22T07:53:56.935Z,20.20
2017-05-22T07:54:56.955Z,20.12
2017-05-22T07:55:56.978Z,20.14
2017-05-22T07:56:57.000Z,20.18
2017-05-22T07:57:56.979Z,20.27
2017-05-22T07:58:56.976Z,20.31
2017-05-22T07:59:56.976Z,20.35
2017-05-22T08:00:56.999Z,20.53
2017-05-22T08:01:57.002Z,20.50
2017-05-22T08:02:56.983Z,20.53
2017-05-22T08:03:56.980Z,20.50
2017-05-22T08:04:56.988Z,20.45
2017-05-22T08:05:56.980Z,20.41
2017-05-22T08:06:56.992Z,20.42
2017-05-22T08:07:56.982Z,20.57
2017-05-22T08:08:57.006Z,20.82
2017-05-22T08:09:56.987Z,20.82
2017-05-22T08:10:56.993Z,20.95
2017-05-22T08:11:56.955Z,20.65
2017-05-22T08:12:57.015Z,20.80
2017-05-22T08:13:56.951Z,20.65
2017-05-22T08:14:56.971Z,20.76
2017-05-22T08:15:56.996Z,20.88
2017-05-22T08:16:56.954Z,20.88
2017-05-22T08:17:56.990Z,20.87
2017-05-22T08:18:56.995Z,21.05
2017-05-22T08:19:56.991Z,21.02
2017-05-22T08:20:56.956Z,21.13
2017-05-22T08:21:56.988Z,21.09
2017-05-22T08:22:56.974Z,21.09
2017-05-22T08:23:56.979Z,21.27
2017-05-22T08:24:57.019Z,21.27
2017-05-22T08:25:56.997Z,21.49
2017-05-22T08:26:56.990Z,21.57
2017-05-22T08:27:56.994Z,21.47
2017-05-22T08:28:56.994Z,21.65
2017-05-22T08:29:57.000Z,21.73
2017-05-22T08:30:57.004Z,21.83
2017-05-22T08:31:56.981Z,21.90
2017-05-22T08:32:56.961Z,21.90
2017-05-22T08:33:57.019Z,22.13
2017-05-22T08:34:57.003Z,22.24
2017-05-22T08:35:56.975Z,22.01
2017-05-22T08:36:57.001Z,21.91
2017-05-22T08:37:56.964Z,21.98
2017-05-22T08:38:57.004Z,21.98
2017-05-22T08:39:57.002Z,22.08
2017-05-22T08:40:57.001Z,22.25
2017-05-22T08:41:57.004Z,22.19
2017-05-22T08:42:56.997Z,22.10
2017-05-22T08:43:57.003Z,22.17
2017-05-22T08:44:57.027Z,22.24
2017-05-22T08:45:57.001Z,22.42
2017-05-22T08:46:56.970Z,22.38
2017-05-22T08:47:56.965Z,22.13
2017-05-22T08:48:56.987Z,22.14
2017-05-22T08:49:57.005Z,22.39
2017-05-22T08:50:57.025Z,22.50
2017-05-22T08:51:56.986Z,22.75
2017-05-22T08:52:57.008Z,22.77
2017-05-22T08:53:57.027Z,22.82
2017-05-22T08:54:57.010Z,22.79
2017-05-22T08:55:57.004Z,22.54
2017-05-22T08:56:57.033Z,22.57
2017-05-22T08:57:57.017Z,22.68
2017-05-22T08:58:57.033Z,22.80
2017-05-22T08:59:57.008Z,22.88
2017-05-22T09:00:56.974Z,22.87
2017-05-22T09:01:57.009Z,22.77
2017-05-22T09:02:57.008Z,22.82
2017-05-22T09:03:57.019Z,22.90
2017-05-22T09:04:57.022Z,22.98
2017-05-22T09:05:57.022Z,22.75
2017-05-22T09:06:57.038Z,23.01
2017-05-22T09:07:57.126Z,23.27
2017-05-22T09:08:57.019Z,23.20
2017-05-22T09:09:57.021Z,23.09
2017-05-22T09:10:57.022Z,22.75
2017-05-22T09:11:57.026Z,22.46
2017-05-22T09:12:57.021Z,22.41
2017-05-22T09:13:57.024Z,22.65
2017-05-22T09:14:57.022Z,22.95
2017-05-22T09:15:57.042Z,23.19
2017-05-22T09:16:57.025Z,23.09
2017-05-22T09:17:57.028Z,23.22
2017-05-22T09:18:57.026Z,23.12
2017-05-22T09:19:57.018Z,23.11
2017-05-22T09:20:57.049Z,23.22
2017-05-22T09:21:57.020Z,23.27
2017-05-22T09:22:57.130Z,23.20
2017-05-22T09:23:57.005Z,22.65
2017-05-22T09:24:57.031Z,22.39
2017-05-22T09:25:57.033Z,22.19
2017-05-22T09:26:57.026Z,22.17
2017-05-22T09:27:57.030Z,22.36
2017-05-22T09:28:57.002Z,22.56
2017-05-22T09:29:56.993Z,22.61
2017-05-22T09:30:57.033Z,22.70
2017-05-22T09:31:57.033Z,22.86
2017-05-22T09:32:57.025Z,22.98
2017-05-22T09:33:57.038Z,23.22
2017-05-22T09:34:57.025Z,23.39
2017-05-22T09:35:57.026Z,23.37
2017-05-22T09:36:57.052Z,23.61
2017-05-22T09:37:57.052Z,23.63
2017-05-22T09:38:57.052Z,23.61
2017-05-22T09:39:57.035Z,23.54
2017-05-22T09:40:57.012Z,23.05
2017-05-22T09:41:57.013Z,22.79
2017-05-22T09:42:57.028Z,22.50
2017-05-22T09:43:57.025Z,22.21
2017-05-22T09:44:57.014Z,22.08
2017-05-22T09:45:57.062Z,21.90
2017-05-22T09:46:57.038Z,22.12
2017-05-22T09:47:57.032Z,22.36
2017-05-22T09:48:57.038Z,22.34
2017-05-22T09:49:57.044Z,22.52
2017-05-22T09:50:57.038Z,22.57
2017-05-22T09:51:57.037Z,22.68
2017-05-22T09:52:56.998Z,22.86
2017-05-22T09:53:57.001Z,22.97
2017-05-22T09:54:57.041Z,23.11
2017-05-22T09:55:57.045Z,22.79
2017-05-22T09:56:57.036Z,22.63
2017-05-22T09:57:57.049Z,22.63
2017-05-22T09:58:57.043Z,22.68
2017-05-22T09:59:57.112Z,22.67
2017-05-22T10:00:57.019Z,22.45
2017-05-22T10:01:57.039Z,22.32
2017-05-22T10:02:57.063Z,22.20
2017-05-22T10:03:57.046Z,22.12
2017-05-22T10:04:57.045Z,21.94
2017-05-22T10:05:57.047Z,21.67
2017-05-22T10:06:57.056Z,21.65
2017-05-22T10:07:57.041Z,21.49
2017-05-22T10:08:57.050Z,21.61
2017-05-22T10:09:57.039Z,21.83
2017-05-22T10:10:57.050Z,22.06
2017-05-22T10:11:57.055Z,22.36
2017-05-22T10:12:57.047Z,22.76
2017-05-22T10:13:57.055Z,23.04
2017-05-22T10:14:57.028Z,23.24
2017-05-22T10:15:57.072Z,23.53
2017-05-22T10:16:57.012Z,23.80
2017-05-22T10:17:57.045Z,23.97
2017-05-22T10:18:57.066Z,24.00
2017-05-22T10:19:57.013Z,24.19
2017-05-22T10:20:57.034Z,24.30
2017-05-22T10:21:57.060Z,24.37
2017-05-22T10:22:57.058Z,24.33
2017-05-22T10:23:57.052Z,24.42
2017-05-22T10:24:57.050Z,23.75
2017-05-22T10:25:57.037Z,23.71
2017-05-22T10:26:57.037Z,23.83
2017-05-22T10:27:57.063Z,23.67
2017-05-22T10:28:57.084Z,23.56
2017-05-22T10:29:57.060Z,23.61
2017-05-22T10:30:57.061Z,23.75
2017-05-22T10:31:57.084Z,23.89
2017-05-22T10:32:57.054Z,23.98
2017-05-22T10:33:57.088Z,23.78
2017-05-22T10:34:57.055Z,23.51
2017-05-22T10:35:57.065Z,23.31
2017-05-22T10:36:57.026Z,23.27
2017-05-22T10:37:57.028Z,23.50
2017-05-22T10:38:57.051Z,23.71
2017-05-22T10:39:57.039Z,23.96
2017-05-22T10:40:57.070Z,24.15
2017-05-22T10:41:57.026Z,23.91
2017-05-22T10:42:57.064Z,23.39
2017-05-22T10:43:57.070Z,23.67
2017-05-22T10:44:57.079Z,24.02
2017-05-22T10:45:57.059Z,24.25
2017-05-22T10:46:57.062Z,23.91
2017-05-22T10:47:57.066Z,23.96
2017-05-22T10:48:57.072Z,23.87
2017-05-22T10:49:57.072Z,23.79
2017-05-22T10:50:57.073Z,23.47
2017-05-22T10:51:57.035Z,23.24
2017-05-22T10:52:57.055Z,23.24
2017-05-22T10:53:57.072Z,22.98
2017-05-22T10:54:57.077Z,23.08
2017-05-22T10:55:57.071Z,23.19
2017-05-22T10:56:57.095Z,22.95
2017-05-22T10:57:57.054Z,22.84
2017-05-22T10:58:57.095Z,22.75
2017-05-22T10:59:57.041Z,22.83
2017-05-22T11:00:57.067Z,23.12
2017-05-22T11:01:57.079Z,23.44
2017-05-22T11:02:57.069Z,23.78
2017-05-22T11:03:57.075Z,23.97
2017-05-22T11:04:57.077Z,23.85
2017-05-22T11:05:57.058Z,23.82
2017-05-22T11:06:57.182Z,24.16
2017-05-22T11:07:57.077Z,24.48
2017-05-22T11:08:57.076Z,24.85
2017-05-22T11:09:57.051Z,25.02
2017-05-22T11:10:57.045Z,25.01
2017-05-22T11:11:57.083Z,24.63
2017-05-22T11:12:57.073Z,24.60
2017-05-22T11:13:57.103Z,24.41
2017-05-22T11:14:57.081Z,24.60
2017-05-22T11:15:57.081Z,24.81
2017-05-22T11:16:57.044Z,24.86
2017-05-22T11:17:57.080Z,24.86
2017-05-22T11:18:57.108Z,24.66
2017-05-22T11:19:57.077Z,24.42
2017-05-22T11:20:57.078Z,24.20
2017-05-22T11:21:57.088Z,24.22
2017-05-22T11:22:57.090Z,24.26
2017-05-22T11:23:57.081Z,24.08
2017-05-22T11:24:57.082Z,24.00
2017-05-22T11:25:57.108Z,24.11
2017-05-22T11:26:57.090Z,24.09
2017-05-22T11:27:57.094Z,24.09
2017-05-22T11:28:57.069Z,24.04
2017-05-22T11:29:57.089Z,23.83
2017-05-22T11:30:57.091Z,23.45
2017-05-22T11:31:57.094Z,23.30
2017-05-22T11:32:57.110Z,23.24
2017-05-22T11:33:57.098Z,23.26
2017-05-22T11:34:57.113Z,23.27
2017-05-22T11:35:57.091Z,23.30
2017-05-22T11:36:57.095Z,23.26
2017-05-22T11:37:57.097Z,23.41
2017-05-22T11:38:57.090Z,23.54
2017-05-22T11:39:57.091Z,23.80
2017-05-22T11:40:57.121Z,23.86
2017-05-22T11:41:57.091Z,23.80
2017-05-22T11:42:57.096Z,23.68
2017-05-22T11:43:57.093Z,23.67
2017-05-22T11:44:57.092Z,23.44
2017-05-22T11:45:57.100Z,23.54
2017-05-22T11:46:57.121Z,23.51
2017-05-22T11:47:57.078Z,23.56
2017-05-22T11:48:57.057Z,23.12
2017-05-22T11:49:57.100Z,23.16
2017-05-22T11:50:57.080Z,23.34
2017-05-22T11:51:57.096Z,23.47
2017-05-22T11:52:57.063Z,23.63
2017-05-22T11:53:57.071Z,23.72
2017-05-22T11:54:57.071Z,23.78
2017-05-22T11:55:57.071Z,23.78
2017-05-22T11:56:57.132Z,23.71
2017-05-22T11:57:57.127Z,23.53
2017-05-22T11:58:57.063Z,23.20
2017-05-22T11:59:57.082Z,23.15
2017-05-22T12:00:57.108Z,23.05
2017-05-22T12:01:57.083Z,23.08
2017-05-22T12:02:57.125Z,23.22
2017-05-22T12:03:57.102Z,23.16
2017-05-22T12:04:57.157Z,23.37
2017-05-22T12:05:57.112Z,23.42
2017-05-22T12:06:57.104Z,23.56
2017-05-22T12:07:57.112Z,23.76
2017-05-22T12:08:57.109Z,23.94
2017-05-22T12:09:57.133Z,24.05
2017-05-22T12:10:57.109Z,24.16
2017-05-22T12:11:57.108Z,24.26
2017-05-22T12:12:57.118Z,24.16
2017-05-22T12:13:57.114Z,24.14
2017-05-22T12:14:57.094Z,24.25
2017-05-22T12:15:57.118Z,24.36
2017-05-22T12:16:57.131Z,24.38
2017-05-22T12:17:57.118Z,24.31
2017-05-22T12:18:57.117Z,24.40
2017-05-22T12:19:57.162Z,24.38
2017-05-22T12:20:57.117Z,24.48
2017-05-22T12:21:57.080Z,24.56
2017-05-22T12:22:57.188Z,24.89
2017-05-22T12:23:57.121Z,25.35
2017-05-22T12:24:57.103Z,25.71
2017-05-22T12:25:57.119Z,25.95
2017-05-22T12:26:57.097Z,25.82
2017-05-22T12:27:57.115Z,25.56
2017-05-22T12:28:57.122Z,25.37
2017-05-22T12:29:57.126Z,25.15
2017-05-22T12:30:57.128Z,25.15
2017-05-22T12:31:57.127Z,24.82
2017-05-22T12:32:57.117Z,24.47
2017-05-22T12:33:57.125Z,24.09
2017-05-22T12:34:57.127Z,24.08
2017-05-22T12:35:57.127Z,24.25
2017-05-22T12:36:57.087Z,24.44
2017-05-22T12:37:57.107Z,24.59
2017-05-22T12:38:57.101Z,24.56
2017-05-22T12:39:57.128Z,24.26
2017-05-22T12:40:57.151Z,24.02
2017-05-22T12:41:57.149Z,24.08
2017-05-22T12:42:57.124Z,24.01
2017-05-22T12:43:57.125Z,23.90
2017-05-22T12:44:57.094Z,23.90
2017-05-22T12:45:57.132Z,23.65
2017-05-22T12:46:57.125Z,23.56
2017-05-22T12:47:57.110Z,23.57
2017-05-22T12:48:57.131Z,23.42
2017-05-22T12:49:57.133Z,23.56
2017-05-22T12:50:57.193Z,23.72
2017-05-22T12:51:57.113Z,23.83
2017-05-22T12:52:57.132Z,24.00
2017-05-22T12:53:57.114Z,24.08
2017-05-22T12:54:57.129Z,24.22
2017-05-22T12:55:57.114Z,24.25
2017-05-22T12:56:57.131Z,24.22
2017-05-22T12:57:57.116Z,24.48
2017-05-22T12:58:57.159Z,24.34
2017-05-22T12:59:57.112Z,24.19
2017-05-22T13:00:57.136Z,24.05
2017-05-22T13:01:57.144Z,24.09
2017-05-22T13:02:57.093Z,24.44
2017-05-22T13:03:57.145Z,24.81